createdAt,value
2024-03-02T00:00:01.853Z,0.128
2024-03-02T00:05:01.932Z,0.121
2024-03-02T00:10:01.727Z,0.108
2024-03-02T00:15:01.680Z,0.114
2024-03-02T00:20:01.798Z,0.114
2024-03-02T00:25:01.694Z,0.11800000000000001
2024-03-02T00:30:01.714Z,0.025
2024-03-02T00:35:01.768Z,0.002
2024-03-02T00:40:01.721Z,0
2024-03-02T00:45:01.758Z,0.009000000000000001
2024-03-02T00:50:03.002Z,0.177
2024-03-02T00:55:01.779Z,0.13
2024-03-02T01:00:01.805Z,0.045
2024-03-02T01:05:01.776Z,0.122
2024-03-02T01:10:01.889Z,0.121
2024-03-02T01:15:01.760Z,0.121
2024-03-02T01:20:01.770Z,0.122
2024-03-02T01:25:01.869Z,0.145
2024-03-02T01:30:01.732Z,0.16
2024-03-02T01:35:01.785Z,0.04
2024-03-02T01:40:01.778Z,0.001
2024-03-02T01:45:02.073Z,0.003
2024-03-02T01:50:01.936Z,0.006
2024-03-02T01:55:01.864Z,0.007
2024-03-02T02:00:01.877Z,0.05
2024-03-02T02:05:01.970Z,0.067
2024-03-02T02:10:01.967Z,0.109
2024-03-02T02:15:04.313Z,0.17500000000000002
2024-03-02T02:20:01.943Z,0.178
2024-03-02T02:25:02.019Z,0.17300000000000001
2024-03-02T02:30:01.969Z,0.138
2024-03-02T02:35:02.223Z,0.11900000000000001
2024-03-02T02:40:01.864Z,0.092
2024-03-02T02:45:01.812Z,0
2024-03-02T02:50:01.849Z,0
2024-03-02T02:55:01.857Z,0.008
2024-03-02T03:00:01.897Z,0.10300000000000001
2024-03-02T03:05:01.867Z,0.044
2024-03-02T03:10:01.883Z,0.158
2024-03-02T03:15:01.851Z,0.157
2024-03-02T03:20:01.955Z,0.11800000000000001
2024-03-02T03:25:01.891Z,0.109
2024-03-02T03:30:01.912Z,0.112
2024-03-02T03:35:02.010Z,0.111
2024-03-02T03:40:01.881Z,0.11
2024-03-02T03:45:02.070Z,0.038
2024-03-02T03:50:01.912Z,0
2024-03-02T03:55:01.922Z,0
2024-03-02T04:00:01.876Z,0
2024-03-02T04:05:01.980Z,0.008
2024-03-02T04:10:01.946Z,0.063
2024-03-02T04:15:02.952Z,0.123
2024-03-02T04:20:01.916Z,0.124
2024-03-02T04:25:02.125Z,0.12
2024-03-02T04:30:02.008Z,0.109
2024-03-02T04:35:01.993Z,0.106
2024-03-02T04:40:02.131Z,0.088
2024-03-02T04:45:02.038Z,0.127
2024-03-02T04:50:02.120Z,0.13
2024-03-02T04:55:02.079Z,0.136
2024-03-02T05:00:02.132Z,0.082
2024-03-02T05:05:02.090Z,0.077
2024-03-02T05:10:02.292Z,0.129
2024-03-02T05:15:02.001Z,0.084
2024-03-02T05:20:01.948Z,0.023
2024-03-02T05:25:02.044Z,0.057
2024-03-02T05:30:02.284Z,0.084
2024-03-02T05:35:02.015Z,0.129
2024-03-02T05:40:02.078Z,0.14400000000000002
2024-03-02T05:45:02.019Z,0.133
2024-03-02T05:50:01.943Z,0.09
2024-03-02T05:55:02.018Z,0.097
2024-03-02T06:00:02.017Z,0.093
2024-03-02T06:05:02.029Z,0.098
2024-03-02T06:10:02.054Z,0.076
2024-03-02T06:15:02.024Z,0.051000000000000004
2024-03-02T06:20:02.116Z,0.01
2024-03-02T06:25:02.201Z,0.003
2024-03-02T06:30:02.069Z,0.002
2024-03-02T06:35:02.327Z,0.003
2024-03-02T06:40:02.114Z,0.034
2024-03-02T06:45:02.073Z,0.083
2024-03-02T06:50:02.161Z,0.083
2024-03-02T06:55:02.320Z,0.085
2024-03-02T07:00:02.128Z,41.091
2024-03-02T07:05:02.196Z,79.08
2024-03-02T07:10:02.341Z,64.959
2024-03-02T07:15:02.193Z,80.693
2024-03-02T07:20:02.238Z,67.684
2024-03-02T07:25:02.200Z,85.804
2024-03-02T07:30:02.234Z,70.648
2024-03-02T07:35:02.293Z,93.761
2024-03-02T07:40:02.380Z,143.298
2024-03-02T07:45:02.161Z,105.554
2024-03-02T07:50:02.077Z,113.894
2024-03-02T07:55:02.100Z,95.804
2024-03-02T08:00:02.172Z,91.035
2024-03-02T08:05:02.211Z,78.991
2024-03-02T08:10:02.208Z,82.221
2024-03-02T08:15:02.161Z,62.848
2024-03-02T08:20:02.138Z,9.944
2024-03-02T08:25:02.160Z,85.87
2024-03-02T08:30:02.166Z,83.94
2024-03-02T08:35:02.162Z,69.777
2024-03-02T08:40:02.233Z,91.298
2024-03-02T08:45:02.241Z,74.524
2024-03-02T08:50:02.554Z,91.163
2024-03-02T08:55:02.408Z,91.346
2024-03-02T09:00:02.215Z,121.87100000000001
2024-03-02T09:05:02.229Z,150.505
2024-03-02T09:10:02.267Z,181.394
2024-03-02T09:15:02.373Z,229.268
2024-03-02T09:20:03.957Z,219.497
2024-03-02T09:25:02.334Z,152.609
2024-03-02T09:30:02.271Z,85.796
2024-03-02T09:35:02.238Z,82.771
2024-03-02T09:40:02.332Z,110.655
2024-03-02T09:45:02.313Z,159.091
2024-03-02T09:50:02.269Z,180.93200000000002
2024-03-02T09:55:02.426Z,95.879
2024-03-02T10:00:02.407Z,93.566
2024-03-02T10:05:02.348Z,93.912
2024-03-02T10:10:02.409Z,81.915
2024-03-02T10:15:02.404Z,98.191
2024-03-02T10:20:02.347Z,82.465
2024-03-02T10:25:04.248Z,91.946
2024-03-02T10:30:02.249Z,90.795
2024-03-02T10:35:02.227Z,194.95000000000002
2024-03-02T10:40:02.319Z,251.562
2024-03-02T10:45:02.286Z,322.831
2024-03-02T10:50:02.198Z,344.877
2024-03-02T10:55:02.404Z,361.118
2024-03-02T11:00:02.318Z,453.8
2024-03-02T11:05:02.274Z,450.956
2024-03-02T11:10:02.518Z,393.672
2024-03-02T11:15:02.353Z,426.649
2024-03-02T11:20:02.350Z,365.522
2024-03-02T11:25:02.723Z,484.213
2024-03-02T11:30:02.336Z,550.448
2024-03-02T11:35:02.416Z,515.927
2024-03-02T11:40:02.623Z,541.793
2024-03-02T11:45:02.480Z,529.9060000000001
2024-03-02T11:50:02.465Z,469.25100000000003
2024-03-02T11:55:02.598Z,464.48400000000004
2024-03-02T12:00:02.485Z,531.736
2024-03-02T12:05:02.307Z,737.8000000000001
2024-03-02T12:10:02.764Z,712.868
2024-03-02T12:15:02.486Z,781.248
2024-03-02T12:20:02.300Z,614.572
2024-03-02T12:25:02.516Z,503.998
2024-03-02T12:30:02.369Z,588.429
2024-03-02T12:35:02.380Z,421.237
2024-03-02T12:40:02.513Z,365.045
2024-03-02T12:45:02.394Z,565.767
2024-03-02T12:55:02.468Z,458.358
2024-03-02T13:00:02.330Z,496.389
2024-03-02T13:05:02.427Z,534.26
2024-03-02T13:35:02.470Z,238.208
2024-03-02T13:40:02.479Z,236.57
2024-03-02T13:45:02.403Z,220.042
2024-03-02T13:50:02.433Z,199.281
2024-03-02T13:55:02.553Z,117.388
2024-03-02T14:00:02.554Z,92.912
2024-03-02T14:05:02.898Z,87.022
2024-03-02T14:10:02.535Z,78.21900000000001
2024-03-02T14:15:02.588Z,89.32600000000001
2024-03-02T14:20:02.585Z,70.717
2024-03-02T14:25:02.700Z,80.736
2024-03-02T14:30:02.628Z,66.95700000000001
2024-03-02T14:35:02.776Z,81.577
2024-03-02T14:40:02.587Z,33.224000000000004
2024-03-02T14:45:02.766Z,0.14400000000000002
2024-03-02T14:50:02.621Z,59.761
2024-03-02T14:55:02.842Z,79.122
2024-03-02T15:00:02.446Z,64.977
2024-03-02T15:05:02.706Z,79.142
2024-03-02T15:10:02.553Z,72.266
2024-03-02T15:15:02.464Z,85.552
2024-03-02T15:20:02.481Z,38.246
2024-03-02T15:25:02.552Z,0
2024-03-02T15:30:02.547Z,0
2024-03-02T15:35:02.786Z,0.11
2024-03-02T15:40:02.516Z,72.32900000000001
2024-03-02T15:45:02.569Z,84.679
2024-03-02T15:50:02.544Z,8.999
2024-03-02T15:55:02.536Z,0.1
2024-03-02T16:00:02.476Z,0.096
2024-03-02T16:05:02.667Z,0.168
2024-03-02T16:10:02.526Z,0.518
2024-03-02T16:15:02.551Z,0.329
2024-03-02T16:20:02.550Z,0.301
2024-03-02T16:25:02.744Z,0.24
2024-03-02T16:30:02.552Z,0.109
2024-03-02T16:35:02.765Z,0.23600000000000002
2024-03-02T16:40:02.580Z,0.17
2024-03-02T16:45:02.562Z,0.23900000000000002
2024-03-02T16:50:02.554Z,0.24
2024-03-02T16:55:04.289Z,0.281
2024-03-02T17:00:02.638Z,0.199
2024-03-02T17:05:02.755Z,0.218
2024-03-02T17:10:02.605Z,0.178
2024-03-02T17:15:02.638Z,0.039
2024-03-02T17:20:02.579Z,0.05
2024-03-02T17:25:02.675Z,0.035
2024-03-02T17:30:02.627Z,0.036000000000000004
2024-03-02T17:35:03.208Z,0.034
2024-03-02T17:40:02.631Z,0.035
2024-03-02T17:45:02.717Z,0.07
2024-03-02T17:50:02.693Z,0.099
2024-03-02T17:55:02.798Z,0.098
2024-03-02T18:00:02.728Z,0.065
2024-03-02T18:05:03.052Z,0.037
2024-03-02T18:10:02.851Z,0.186
2024-03-02T18:15:02.930Z,2.287
2024-03-02T18:20:02.826Z,0.121
2024-03-02T18:25:02.979Z,0.001
2024-03-02T18:30:02.769Z,0
2024-03-02T18:35:02.864Z,0
2024-03-02T18:40:02.965Z,0.028
2024-03-02T18:45:02.648Z,0.053
2024-03-02T18:50:02.636Z,0.07200000000000001
2024-03-02T18:55:02.698Z,0.077
2024-03-02T19:00:02.879Z,0.032
2024-03-02T19:05:02.815Z,0.343
2024-03-02T19:10:02.691Z,0.133
2024-03-02T19:15:02.948Z,0.203
2024-03-02T19:20:02.726Z,0.127
2024-03-02T19:25:02.759Z,0.25
2024-03-02T19:30:02.787Z,0.024
2024-03-02T19:35:02.901Z,0.005
2024-03-02T19:40:02.799Z,0.048
2024-03-02T19:45:02.872Z,0.244
2024-03-02T19:50:02.808Z,0.41100000000000003
2024-03-02T19:55:02.939Z,0.025
2024-03-02T20:00:02.808Z,0.014
2024-03-02T20:05:02.870Z,0.008
2024-03-02T20:10:03.311Z,0.002
2024-03-02T20:15:02.897Z,0
2024-03-02T20:20:02.725Z,0.019
2024-03-02T20:25:02.764Z,0.08600000000000001
2024-03-02T20:30:02.767Z,0.057
2024-03-02T20:35:02.960Z,0.063
2024-03-02T20:40:02.812Z,0.105
2024-03-02T20:45:02.868Z,0.134
2024-03-02T20:50:02.747Z,0.14
2024-03-02T20:55:02.844Z,0.145
2024-03-02T21:00:02.755Z,0.195
2024-03-02T21:05:02.851Z,0.084
2024-03-02T21:10:02.837Z,0.009000000000000001
2024-03-02T21:15:02.714Z,0.006
2024-03-02T21:20:02.808Z,0
2024-03-02T21:25:02.953Z,0.14200000000000002
2024-03-02T21:30:02.786Z,0.101
2024-03-02T21:35:02.968Z,0.001
2024-03-02T21:40:03.013Z,0
2024-03-02T21:45:02.842Z,0
2024-03-02T21:50:02.943Z,0
2024-03-02T21:55:03.007Z,0.099
2024-03-02T22:00:03.080Z,0.182
2024-03-02T22:05:03.234Z,0.129
2024-03-02T22:10:03.150Z,0.131
2024-03-02T22:15:02.837Z,0.139
2024-03-02T22:20:02.871Z,0.146
2024-03-02T22:25:02.880Z,0.105
2024-03-02T22:30:02.926Z,0
2024-03-02T22:40:03.110Z,0.035
2024-03-02T22:45:03.011Z,0.5630000000000001
2024-03-02T22:50:02.919Z,0.623
2024-03-02T22:55:02.984Z,0.678
2024-03-02T23:00:02.926Z,0.685
2024-03-02T23:05:02.952Z,0.799
2024-03-02T23:10:03.228Z,0.937
2024-03-02T23:15:02.957Z,0.9560000000000001
2024-03-02T23:20:02.935Z,0.9520000000000001
2024-03-02T23:25:02.934Z,0.89
2024-03-02T23:30:02.973Z,0.6930000000000001
2024-03-02T23:35:03.028Z,0.71
2024-03-02T23:40:03.303Z,0.737
2024-03-02T23:45:03.127Z,0.771
2024-03-02T23:50:03.104Z,0.767
2024-03-02T23:55:04.933Z,0.781
